createdAt,value
2023-01-01T00:03:05.995Z,0
2023-01-01T00:08:05.905Z,0
2023-01-01T00:13:05.901Z,0
2023-01-01T00:18:05.858Z,0
2023-01-01T00:23:05.953Z,0
2023-01-01T00:28:05.835Z,0
2023-01-01T00:33:05.930Z,0
2023-01-01T00:43:05.824Z,0
2023-01-01T00:48:05.728Z,0
2023-01-01T00:53:05.715Z,0
2023-01-01T00:58:05.683Z,0
2023-01-01T01:03:05.745Z,0
2023-01-01T01:08:05.711Z,0
2023-01-01T01:13:05.684Z,0
2023-01-01T01:18:05.737Z,0
2023-01-01T01:23:05.700Z,0
2023-01-01T01:28:05.732Z,0
2023-01-01T01:33:05.737Z,0
2023-01-01T01:38:05.546Z,0
2023-01-01T01:43:05.518Z,0
2023-01-01T01:48:05.487Z,0
2023-01-01T01:53:05.468Z,0
2023-01-01T01:58:05.438Z,0
2023-01-01T02:03:05.418Z,0
2023-01-01T02:08:05.427Z,0
2023-01-01T02:13:05.389Z,0
2023-01-01T02:18:05.365Z,0
2023-01-01T02:23:05.429Z,0
2023-01-01T02:28:05.350Z,0
2023-01-01T02:33:05.374Z,0
2023-01-01T02:38:05.274Z,0
2023-01-01T02:43:05.267Z,0
2023-01-01T02:48:05.241Z,0
2023-01-01T02:53:05.212Z,0
2023-01-01T02:58:05.248Z,0
2023-01-01T03:03:05.191Z,0
2023-01-01T03:08:05.195Z,0
2023-01-01T03:13:05.135Z,0
2023-01-01T03:18:05.116Z,0
2023-01-01T03:23:05.140Z,0
2023-01-01T03:28:05.079Z,0
2023-01-01T03:33:05.111Z,0
2023-01-01T03:38:05.039Z,0
2023-01-01T03:43:05.006Z,0
2023-01-01T03:48:04.987Z,0
2023-01-01T03:53:04.970Z,0
2023-01-01T03:58:04.953Z,0
2023-01-01T04:03:04.931Z,0
2023-01-01T04:08:04.914Z,0
2023-01-01T04:13:04.882Z,0
2023-01-01T04:18:04.858Z,0
2023-01-01T04:23:04.923Z,0
2023-01-01T04:28:04.957Z,0
2023-01-01T04:33:04.872Z,0
2023-01-01T04:38:04.814Z,0
2023-01-01T04:43:04.826Z,0
2023-01-01T04:48:04.748Z,0
2023-01-01T04:53:04.724Z,0
2023-01-01T04:58:04.717Z,0
2023-01-01T05:03:04.725Z,0
2023-01-01T05:08:04.662Z,0
2023-01-01T05:13:04.636Z,0
2023-01-01T05:18:04.623Z,0
2023-01-01T05:23:04.606Z,0
2023-01-01T05:28:04.585Z,0
2023-01-01T05:33:04.588Z,0
2023-01-01T05:38:04.542Z,0
2023-01-01T05:43:04.537Z,0
2023-01-01T05:48:04.504Z,0
2023-01-01T05:53:04.503Z,0
2023-01-01T05:58:04.458Z,0
2023-01-01T06:03:04.448Z,0
2023-01-01T06:08:04.558Z,0
2023-01-01T06:13:04.434Z,0
2023-01-01T06:18:04.370Z,0
2023-01-01T06:23:04.508Z,0
2023-01-01T06:28:04.373Z,0
2023-01-01T06:33:04.464Z,0
2023-01-01T06:38:04.298Z,0
2023-01-01T06:43:04.346Z,0
2023-01-01T06:48:04.255Z,0
2023-01-01T06:53:04.231Z,0
2023-01-01T06:58:04.224Z,0
2023-01-01T07:03:04.305Z,0
2023-01-01T07:08:04.330Z,0
2023-01-01T07:13:04.173Z,0
2023-01-01T07:18:04.290Z,0
2023-01-01T07:23:04.210Z,0
2023-01-01T07:28:04.146Z,0
2023-01-01T07:33:04.150Z,0
2023-01-01T07:38:04.097Z,0
2023-01-01T07:43:04.036Z,0
2023-01-01T07:48:04.073Z,0
2023-01-01T07:53:04.099Z,0
2023-01-01T07:58:04.047Z,0
2023-01-01T08:03:03.989Z,0
2023-01-01T08:08:03.969Z,0
2023-01-01T08:13:03.908Z,0
2023-01-01T08:18:03.973Z,0
2023-01-01T08:23:03.875Z,0
2023-01-01T08:28:03.974Z,0
2023-01-01T08:33:03.977Z,0
2023-01-01T08:38:03.881Z,0
2023-01-01T08:43:03.865Z,0
2023-01-01T08:48:03.839Z,0
2023-01-01T08:53:03.750Z,0
2023-01-01T08:58:03.851Z,0
2023-01-01T09:03:03.866Z,0
2023-01-01T09:08:03.783Z,0
2023-01-01T09:13:03.797Z,0
2023-01-01T09:18:03.841Z,0
2023-01-01T09:23:03.694Z,0
2023-01-01T09:28:03.710Z,0
2023-01-01T09:33:03.590Z,0
2023-01-01T09:38:03.570Z,0
2023-01-01T09:43:03.608Z,0
2023-01-01T09:48:03.522Z,0
2023-01-01T09:53:03.570Z,0
2023-01-01T09:58:03.561Z,0
2023-01-01T10:03:03.548Z,0
2023-01-01T10:08:03.441Z,0
2023-01-01T10:13:03.508Z,0
2023-01-01T10:18:03.517Z,0
2023-01-01T10:23:03.495Z,0
2023-01-01T10:28:03.450Z,0
2023-01-01T10:33:03.466Z,0
2023-01-01T10:38:03.450Z,0
2023-01-01T10:43:03.384Z,0
2023-01-01T10:48:03.271Z,0
2023-01-01T10:53:03.327Z,0
2023-01-01T10:58:03.226Z,0
2023-01-01T11:03:03.204Z,0
2023-01-01T11:08:03.186Z,0
2023-01-01T11:13:03.196Z,0
2023-01-01T11:23:03.215Z,0
2023-01-01T11:28:03.209Z,0
2023-01-01T11:33:03.079Z,99
2023-01-01T11:38:03.098Z,100
2023-01-01T11:43:03.038Z,96.5
2023-01-01T11:48:03.089Z,97.5
2023-01-01T11:53:03.026Z,90.5
2023-01-01T11:58:03.006Z,95.5
2023-01-01T12:03:03.046Z,92.5
2023-01-01T12:08:02.933Z,99.5
2023-01-01T12:13:03.033Z,98
2023-01-01T12:18:03.016Z,100
2023-01-01T12:23:02.861Z,91
2023-01-01T12:28:02.946Z,99.5
2023-01-01T12:33:02.843Z,100
2023-01-01T12:38:02.836Z,93.5
2023-01-01T12:43:02.868Z,95.5
2023-01-01T12:48:02.788Z,94
2023-01-01T12:53:02.879Z,95.5
2023-01-01T12:58:02.832Z,96.5
2023-01-01T13:03:02.786Z,89
2023-01-01T13:08:02.752Z,85.5
2023-01-01T13:13:02.729Z,86.5
2023-01-01T13:18:02.694Z,89.5
2023-01-01T13:23:02.757Z,82
2023-01-01T13:28:02.653Z,84
2023-01-01T13:33:02.701Z,91
2023-01-01T13:38:02.642Z,91.5
2023-01-01T13:43:02.535Z,94
2023-01-01T13:48:02.608Z,94.5
2023-01-01T13:53:02.644Z,95.5
2023-01-01T13:58:02.586Z,87
2023-01-01T14:03:02.536Z,95.5
2023-01-01T14:08:02.531Z,93.5
2023-01-01T14:13:02.475Z,91
2023-01-01T14:18:02.449Z,95.5
2023-01-01T14:23:02.409Z,95
2023-01-01T14:28:02.336Z,99.5
2023-01-01T14:33:02.428Z,99.5
2023-01-01T14:38:02.311Z,100
2023-01-01T14:43:02.388Z,100
2023-01-01T14:48:02.302Z,100
2023-01-01T14:53:02.244Z,100
2023-01-01T14:58:02.254Z,100
2023-01-01T15:03:02.329Z,100
2023-01-01T15:08:02.180Z,100
2023-01-01T15:13:02.242Z,100
2023-01-01T15:18:02.234Z,100
2023-01-01T15:23:02.143Z,100
2023-01-01T15:28:02.246Z,100
2023-01-01T15:33:02.071Z,100
2023-01-01T15:38:02.052Z,100
2023-01-01T15:43:02.034Z,100
2023-01-01T15:48:02.019Z,100
2023-01-01T15:53:01.986Z,100
2023-01-01T15:58:02.142Z,100
2023-01-01T16:03:01.957Z,100
2023-01-01T16:08:01.930Z,100
2023-01-01T16:13:01.910Z,100
2023-01-01T16:18:01.952Z,100
2023-01-01T16:23:01.924Z,100
2023-01-01T16:28:01.896Z,100
2023-01-01T16:33:01.916Z,100
2023-01-01T16:38:01.869Z,100
2023-01-01T16:43:01.862Z,100
2023-01-01T16:48:01.779Z,100
2023-01-01T16:53:01.740Z,100
2023-01-01T16:58:01.719Z,100
2023-01-01T17:03:01.699Z,100
2023-01-01T17:08:01.684Z,100
2023-01-01T17:13:01.659Z,100
2023-01-01T17:18:01.683Z,100
2023-01-01T17:23:01.675Z,100
2023-01-01T17:28:01.708Z,100
2023-01-01T17:33:01.663Z,100
2023-01-01T17:38:01.610Z,100
2023-01-01T17:43:01.668Z,100
2023-01-01T17:48:01.536Z,100
2023-01-01T17:53:01.630Z,100
2023-01-01T17:58:01.632Z,100
2023-01-01T18:03:01.634Z,100
2023-01-01T18:08:01.464Z,100
2023-01-01T18:13:01.577Z,100
2023-01-01T18:18:01.528Z,100
2023-01-01T18:23:01.435Z,100
2023-01-01T18:28:01.489Z,100
2023-01-01T18:33:01.505Z,100
2023-01-01T18:38:01.317Z,100
2023-01-01T18:43:01.401Z,100
2023-01-01T18:48:01.388Z,0.5
2023-01-01T18:53:01.388Z,0.5
2023-01-01T18:58:01.260Z,1
2023-01-01T19:03:01.287Z,1
2023-01-01T19:08:01.367Z,1
2023-01-01T19:13:01.254Z,0.5
2023-01-01T19:18:01.208Z,0.5
2023-01-01T19:23:01.202Z,1
2023-01-01T19:28:01.107Z,1.5
2023-01-01T19:33:01.112Z,2
2023-01-01T19:38:01.116Z,2
2023-01-01T19:43:01.045Z,2
2023-01-01T19:48:01.047Z,2
2023-01-01T19:53:01.012Z,2.5
2023-01-01T19:58:00.992Z,2
2023-01-01T20:03:01.060Z,1.5
2023-01-01T20:08:00.976Z,2
2023-01-01T20:13:00.938Z,1
2023-01-01T20:18:00.968Z,1
2023-01-01T20:23:00.887Z,0
2023-01-01T20:28:00.902Z,0
2023-01-01T20:33:00.856Z,0.5
2023-01-01T20:38:00.841Z,0.5
2023-01-01T20:43:00.954Z,1
2023-01-01T20:48:00.800Z,1.5
2023-01-01T20:53:00.784Z,2.5
2023-01-01T20:58:00.745Z,2.5
2023-01-01T21:03:00.801Z,2.5
2023-01-01T21:08:00.789Z,1.5
2023-01-01T21:13:00.752Z,2
2023-01-01T21:18:00.686Z,1
2023-01-01T21:23:00.646Z,0.5
2023-01-01T21:28:00.625Z,0.5
2023-01-01T21:33:00.640Z,0.5
2023-01-01T21:38:00.722Z,0
2023-01-01T21:43:00.650Z,0
2023-01-01T21:48:00.675Z,0
2023-01-01T21:53:00.606Z,0
2023-01-01T21:58:00.612Z,0
2023-01-01T22:03:00.613Z,0
2023-01-01T22:08:00.611Z,0
2023-01-01T22:13:00.516Z,0
2023-01-01T22:18:00.520Z,0
2023-01-01T22:23:00.401Z,0
2023-01-01T22:28:00.431Z,0
2023-01-01T22:33:00.384Z,0
2023-01-01T22:38:00.351Z,0
2023-01-01T22:43:00.408Z,0
2023-01-01T22:48:00.408Z,0
2023-01-01T22:53:00.292Z,0
2023-01-01T22:58:00.324Z,0
2023-01-01T23:03:00.258Z,0
2023-01-01T23:08:00.298Z,0
2023-01-01T23:13:00.209Z,0
2023-01-01T23:18:00.331Z,0
2023-01-01T23:23:00.236Z,0
2023-01-01T23:28:00.195Z,0
2023-01-01T23:33:00.184Z,0
2023-01-01T23:38:00.128Z,0
2023-01-01T23:43:00.094Z,0
2023-01-01T23:48:00.208Z,0
2023-01-01T23:53:00.083Z,0
2023-01-01T23:58:00.049Z,0
